Cardiff, New Jersey
Current Conditions -  °F | °C
As of 2:54 AM on Tuesday 27 Jan 2015 (Local Time) from KACY Reporting Station
Light Snow Light Snow  
Wind Chill: 12°   Ceiling: 2400
Heat Index: 25°   Visibility: 2mi
Dew Point: 22°   Wind: 17mph
Humidity: 88%   Direction: 350°N
Pressure: 29.62"   Gusts: 28mph
Location:  39.365°N, 74.6283°W
Report Text: KACY 270754Z 35015G24KT 2SM -SN BR FEW010 FEW015 OVC024 M04/M06 A2962 RMK AO2 SLP031 P0000 T10391056
Loading
Personal Weather Stations






























Interactive Weather Map New forecast layout! Learn more

10-Day Weather Forecast

Advertisements
Track Severe Weather on mobile